Time;durP1;ratioP1;P1;durP2;ratioP2;P2;SDS_P1;SDS_P2;PMS_P1;PMS_P2;Temp;Humidity;BMP_temperature;BMP_pressure;BME280_temperature;BME280_humidity;BME280_pressure;Samples;Min_cycle;Max_cycle;Signal;HPM_P1;HPM_P2
2021/07/09 00:01:30;;;;;;;;;6.00;6.00;;;;;-147.17;100.00;59696.56;4971521;28;51444;-54
2021/07/09 00:03:56;;;;;;;;;6.33;6.33;;;;;-147.17;100.00;59696.56;4969648;28;51152;-53
2021/07/09 00:06:22;;;;;;;;;9.00;8.33;;;;;-147.17;100.00;59696.56;4968265;28;51213;-53
2021/07/09 00:08:49;;;;;;;;;9.00;9.00;;;;;-147.17;100.00;59696.56;4973990;28;51023;-54
2021/07/09 00:11:16;;;;;;;;;6.67;6.33;;;;;-147.17;100.00;59696.56;4955544;28;52065;-53
2021/07/09 00:13:41;;;;;;;;;6.67;6.67;;;;;-147.17;100.00;59696.56;4966376;28;51194;-54
2021/07/09 00:16:09;;;;;;;;;8.67;8.00;;;;;-147.17;100.00;59696.56;4961167;28;51244;-55
2021/07/09 00:18:34;;;;;;;;;9.33;9.00;;;;;-147.17;100.00;59696.56;4970097;28;51178;-57
2021/07/09 00:21:00;;;;;;;;;8.00;6.67;;;;;-147.17;100.00;59696.56;4956346;28;54004;-58
2021/07/09 00:23:25;;;;;;;;;6.00;6.00;;;;;-147.17;100.00;59696.56;4955785;28;51074;-57
2021/07/09 00:25:51;;;;;;;;;8.00;8.00;;;;;-147.17;100.00;59696.56;4972908;28;51308;-56
2021/07/09 00:28:16;;;;;;;;;7.67;7.00;;;;;-147.17;100.00;59696.56;4966748;28;51126;-57
2021/07/09 00:30:42;;;;;;;;;7.00;7.00;;;;;-147.17;100.00;59696.56;4972791;28;51993;-56
2021/07/09 00:33:07;;;;;;;;;7.33;6.33;;;;;-147.17;100.00;59696.56;4970959;28;51095;-57
2021/07/09 00:35:32;;;;;;;;;7.00;7.00;;;;;-147.17;100.00;59696.56;4973510;28;51190;-56
2021/07/09 00:37:58;;;;;;;;;7.67;6.00;;;;;-147.17;100.00;59696.56;4958245;28;51369;-56
2021/07/09 00:40:23;;;;;;;;;8.00;8.00;;;;;-147.17;100.00;59696.56;4973526;28;51908;-56
2021/07/09 00:42:48;;;;;;;;;6.00;6.00;;;;;-147.17;100.00;59696.56;4974746;28;51042;-56
2021/07/09 00:45:15;;;;;;;;;4.67;4.67;;;;;-147.17;100.00;59696.56;4973319;28;50995;-56
2021/07/09 00:47:47;;;;;;;;;5.33;5.00;;;;;-147.17;100.00;59696.56;4955941;28;51027;-56
2021/07/09 00:50:13;;;;;;;;;9.00;8.67;;;;;-147.17;100.00;59696.56;4973689;28;51831;-56
2021/07/09 00:52:39;;;;;;;;;10.33;9.00;;;;;-147.17;100.00;59696.56;4974406;28;51001;-57
2021/07/09 00:55:06;;;;;;;;;8.00;8.00;;;;;-147.17;100.00;59696.56;4973453;28;51203;-56
2021/07/09 00:57:31;;;;;;;;;5.67;5.00;;;;;-147.17;100.00;59696.56;4955392;28;51367;-56
2021/07/09 00:59:57;;;;;;;;;7.67;7.33;;;;;-147.17;100.00;59696.56;4955070;28;51063;-56
2021/07/09 01:02:23;;;;;;;;;9.00;8.00;;;;;-147.17;100.00;59696.56;4955572;28;51044;-58
2021/07/09 01:04:56;;;;;;;;;9.67;9.67;;;;;-147.17;100.00;59696.56;4973683;28;50892;-54
2021/07/09 01:07:22;;;;;;;;;7.33;7.00;;;;;-147.17;100.00;59696.56;4949159;28;50939;-54
2021/07/09 01:09:47;;;;;;;;;7.67;7.00;;;;;-147.17;100.00;59696.56;4970429;28;51609;-56
2021/07/09 01:12:13;;;;;;;;;8.00;7.67;;;;;-147.17;100.00;59696.56;4963835;28;51140;-54
2021/07/09 01:14:38;;;;;;;;;9.67;9.67;;;;;-147.17;100.00;59696.56;4966957;28;51078;-54
2021/07/09 01:17:04;;;;;;;;;7.67;7.67;;;;;-147.17;100.00;59696.56;4971440;28;51101;-55
2021/07/09 01:19:29;;;;;;;;;7.33;7.33;;;;;-147.17;100.00;59696.56;4966972;28;51711;-55
2021/07/09 01:21:55;;;;;;;;;8.33;8.33;;;;;-147.17;100.00;59696.56;4972553;28;51053;-54
2021/07/09 01:24:23;;;;;;;;;9.00;9.00;;;;;-147.17;100.00;59696.56;4964236;28;51110;-54
2021/07/09 01:26:48;;;;;;;;;9.33;9.33;;;;;-147.17;100.00;59696.56;4971333;28;50962;-54
2021/07/09 01:29:14;;;;;;;;;11.00;10.33;;;;;-147.17;100.00;59696.56;4960551;28;50998;-54
2021/07/09 01:31:39;;;;;;;;;11.33;10.33;;;;;-147.17;100.00;59696.56;4965688;28;51082;-55
2021/07/09 01:34:05;;;;;;;;;8.33;8.33;;;;;-147.17;100.00;59696.56;4969815;28;51245;-54
2021/07/09 01:36:31;;;;;;;;;9.25;9.25;;;;;-147.17;100.00;59696.56;4970368;28;51299;-54
2021/07/09 01:38:57;;;;;;;;;10.50;9.50;;;;;-147.17;100.00;59696.56;4984583;28;52384;-54
2021/07/09 01:41:22;;;;;;;;;9.00;9.00;;;;;-147.17;100.00;59696.56;4963791;28;51053;-54
2021/07/09 01:43:48;;;;;;;;;8.33;7.00;;;;;-147.17;100.00;59696.56;4971823;28;51495;-54
2021/07/09 01:46:14;;;;;;;;;10.33;10.33;;;;;-147.17;100.00;59696.56;4963767;28;51080;-53
2021/07/09 01:48:40;;;;;;;;;10.00;9.67;;;;;-147.17;100.00;59696.56;4967210;28;52130;-51
2021/07/09 01:51:05;;;;;;;;;10.33;9.00;;;;;-147.17;100.00;59696.56;4970157;28;50950;-52
2021/07/09 01:53:31;;;;;;;;;11.00;11.00;;;;;-147.17;100.00;59696.56;4964174;28;51113;-50
2021/07/09 01:55:57;;;;;;;;;9.00;9.00;;;;;-147.17;100.00;59696.56;4973153;28;50955;-53
2021/07/09 01:58:22;;;;;;;;;13.00;11.33;;;;;-147.17;100.00;59696.56;4970761;28;54036;-49
2021/07/09 02:00:49;;;;;;;;;9.67;9.67;;;;;-147.17;100.00;59696.56;4966676;28;51282;-48
2021/07/09 02:03:15;;;;;;;;;13.67;12.67;;;;;-147.17;100.00;59696.56;4973007;28;51247;-52
2021/07/09 02:05:40;;;;;;;;;10.00;10.00;;;;;-147.17;100.00;59696.56;4964230;28;51282;-50
2021/07/09 02:08:06;;;;;;;;;14.00;12.00;;;;;-147.17;100.00;59696.56;4973133;28;51576;-50
2021/07/09 02:10:36;;;;;;;;;10.67;10.00;;;;;-147.17;100.00;59696.56;4963762;28;51266;-50
2021/07/09 02:13:02;;;;;;;;;8.33;8.33;;;;;-147.17;100.00;59696.56;4972346;28;51072;-47
2021/07/09 02:15:31;;;;;;;;;10.33;9.33;;;;;-147.17;100.00;59696.56;4965297;28;51367;-48
2021/07/09 02:17:57;;;;;;;;;11.67;10.67;;;;;-147.17;100.00;59696.56;4969199;28;51771;-47
2021/07/09 02:20:25;;;;;;;;;11.33;11.33;;;;;-147.17;100.00;59696.56;4970782;28;50954;-50
2021/07/09 02:22:53;;;;;;;;;10.00;9.67;;;;;-147.17;100.00;59696.56;4964349;28;51144;-48
2021/07/09 02:25:19;;;;;;;;;12.00;12.00;;;;;-147.17;100.00;59696.56;4968058;28;51224;-51
2021/07/09 02:27:47;;;;;;;;;11.00;10.33;;;;;-147.17;100.00;59696.56;4968914;28;51960;-50
2021/07/09 02:30:16;;;;;;;;;10.33;9.00;;;;;-147.17;100.00;59696.56;4969627;28;50831;-48
2021/07/09 02:32:42;;;;;;;;;11.00;11.00;;;;;-147.17;100.00;59696.56;4971596;28;51309;-51
2021/07/09 02:35:11;;;;;;;;;13.00;12.00;;;;;-147.17;100.00;59696.56;4961714;28;51019;-48
2021/07/09 02:37:37;;;;;;;;;11.25;11.00;;;;;-147.17;100.00;59696.56;4981388;28;51271;-49
2021/07/09 02:40:07;;;;;;;;;13.00;12.00;;;;;-147.17;100.00;59696.56;4973446;28;50894;-48
2021/07/09 02:42:33;;;;;;;;;12.00;11.75;;;;;-147.17;100.00;59696.56;4973036;28;51083;-48
2021/07/09 02:44:58;;;;;;;;;12.33;11.00;;;;;-147.17;100.00;59696.56;4972442;28;51373;-49
2021/07/09 02:47:24;;;;;;;;;10.33;9.67;;;;;-147.17;100.00;59696.56;4962562;28;51048;-49
2021/07/09 02:49:49;;;;;;;;;11.00;11.00;;;;;-147.17;100.00;59696.56;4964709;28;51153;-48
2021/07/09 02:52:14;;;;;;;;;14.00;12.25;;;;;-147.17;100.00;59696.56;4971777;28;51047;-50
2021/07/09 02:54:40;;;;;;;;;12.00;11.67;;;;;-147.17;100.00;59696.56;4972477;28;51366;-49
2021/07/09 02:57:05;;;;;;;;;11.00;11.00;;;;;-147.17;100.00;59696.56;4972727;28;52050;-50
2021/07/09 02:59:30;;;;;;;;;12.67;12.33;;;;;-147.17;100.00;59696.56;4972627;28;51225;-49
2021/07/09 03:01:56;;;;;;;;;11.00;10.67;;;;;-147.17;100.00;59696.56;4968371;28;51296;-48
2021/07/09 03:04:21;;;;;;;;;11.67;11.67;;;;;-147.17;100.00;59696.56;4962884;28;51335;-48
2021/07/09 03:06:47;;;;;;;;;10.75;10.50;;;;;-147.17;100.00;59696.56;4967522;28;51953;-50
2021/07/09 03:09:12;;;;;;;;;11.67;10.67;;;;;-147.17;100.00;59696.56;4971096;28;51172;-48
2021/07/09 03:11:39;;;;;;;;;13.00;11.67;;;;;-147.17;100.00;59696.56;4972711;28;51077;-48
2021/07/09 03:14:07;;;;;;;;;11.67;10.67;;;;;-147.17;100.00;59696.56;4972404;28;51260;-48
2021/07/09 03:16:34;;;;;;;;;10.33;10.00;;;;;-147.17;100.00;59696.56;4954006;28;51202;-54
2021/07/09 03:18:59;;;;;;;;;12.67;11.33;;;;;-147.17;100.00;59696.56;4971768;28;51114;-48
2021/07/09 03:21:24;;;;;;;;;11.00;10.33;;;;;-147.17;100.00;59696.56;4971802;28;51197;-48
2021/07/09 03:23:50;;;;;;;;;11.33;11.00;;;;;-147.17;100.00;59696.56;4966746;28;51029;-48
2021/07/09 03:26:18;;;;;;;;;10.33;10.00;;;;;-147.17;100.00;59696.56;4971420;28;51061;-50
2021/07/09 03:28:43;;;;;;;;;11.00;11.00;;;;;-147.17;100.00;59696.56;4965060;28;51200;-49
2021/07/09 03:31:09;;;;;;;;;12.50;12.00;;;;;-147.17;100.00;59696.56;4971809;28;51218;-48
2021/07/09 03:33:35;;;;;;;;;10.67;10.67;;;;;-147.17;100.00;59696.56;4972573;28;51253;-47
2021/07/09 03:36:01;;;;;;;;;13.00;13.00;;;;;-147.17;100.00;59696.56;4971276;28;51809;-48
2021/07/09 03:38:26;;;;;;;;;11.50;11.50;;;;;-147.17;100.00;59696.56;4989063;28;50967;-50
2021/07/09 03:40:52;;;;;;;;;11.67;11.67;;;;;-147.17;100.00;59696.56;4974358;28;51284;-48
2021/07/09 03:43:17;;;;;;;;;14.00;12.67;;;;;-147.17;100.00;59696.56;4973974;28;51172;-49
2021/07/09 03:45:42;;;;;;;;;14.00;13.33;;;;;-147.17;100.00;59696.56;4974508;28;51154;-50
2021/07/09 03:48:08;;;;;;;;;13.50;13.00;;;;;-147.17;100.00;59696.56;4975653;28;51123;-47
2021/07/09 03:50:33;;;;;;;;;13.00;13.00;;;;;-147.17;100.00;59696.56;4968459;28;51745;-48
2021/07/09 03:52:59;;;;;;;;;13.00;12.33;;;;;-147.17;100.00;59696.56;4975344;28;51435;-50
2021/07/09 03:55:24;;;;;;;;;11.00;11.00;;;;;-147.17;100.00;59696.56;4974427;28;51924;-48
2021/07/09 03:57:49;;;;;;;;;12.75;12.00;;;;;-147.17;100.00;59696.56;4973381;28;51047;-49
2021/07/09 04:00:16;;;;;;;;;11.33;11.33;;;;;-147.17;100.00;59696.56;4975477;28;51249;-49
2021/07/09 04:02:42;;;;;;;;;12.75;11.75;;;;;-147.17;100.00;59696.56;4968962;28;51350;-47
2021/07/09 04:05:08;;;;;;;;;11.75;10.75;;;;;-147.17;100.00;59696.56;4963177;28;51689;-48
2021/07/09 04:07:33;;;;;;;;;12.00;11.67;;;;;-147.17;100.00;59696.56;4974582;28;50989;-48
2021/07/09 04:09:59;;;;;;;;;13.25;13.25;;;;;-147.17;100.00;59696.56;4974239;28;50877;-49
2021/07/09 04:12:24;;;;;;;;;12.25;12.25;;;;;-147.17;100.00;59696.56;4975164;28;51095;-50
2021/07/09 04:14:49;;;;;;;;;12.00;11.33;;;;;-147.17;100.00;59696.56;4973300;28;51189;-48
2021/07/09 04:17:15;;;;;;;;;10.50;9.50;;;;;-147.17;100.00;59696.56;4956565;28;51179;-51
2021/07/09 04:19:40;;;;;;;;;12.00;11.50;;;;;-147.17;100.00;59696.56;4975239;28;50986;-51
2021/07/09 04:22:06;;;;;;;;;13.25;13.25;;;;;-147.17;100.00;59696.56;4974650;28;50875;-51
2021/07/09 04:24:31;;;;;;;;;12.75;11.75;;;;;-147.17;100.00;59696.56;4975121;28;51004;-53
2021/07/09 04:26:57;;;;;;;;;12.00;11.67;;;;;-147.17;100.00;59696.56;4974005;28;51051;-50
2021/07/09 04:29:22;;;;;;;;;13.00;13.00;;;;;-147.17;100.00;59696.56;4972655;28;51731;-50
2021/07/09 04:31:48;;;;;;;;;11.75;11.00;;;;;-147.17;100.00;59696.56;4968671;28;51152;-49
2021/07/09 04:34:13;;;;;;;;;12.00;11.75;;;;;-147.17;100.00;59696.56;4974696;28;52546;-49
2021/07/09 04:36:38;;;;;;;;;13.75;12.50;;;;;-147.17;100.00;59696.56;4975289;28;51204;-50
2021/07/09 04:39:04;;;;;;;;;14.25;13.75;;;;;-147.17;100.00;59696.56;4987692;28;50963;-49
2021/07/09 04:41:29;;;;;;;;;12.25;12.25;;;;;-147.17;100.00;59696.56;4973218;28;51155;-49
2021/07/09 04:43:54;;;;;;;;;15.00;11.67;;;;;-147.17;100.00;59696.56;4974098;28;51107;-50
2021/07/09 04:46:20;;;;;;;;;14.67;14.33;;;;;-147.17;100.00;59696.56;4940718;28;51119;-48
2021/07/09 04:48:45;;;;;;;;;15.67;14.67;;;;;-147.17;100.00;59696.56;4974231;28;51657;-48
2021/07/09 04:51:11;;;;;;;;;14.67;13.67;;;;;-147.17;100.00;59696.56;4974889;28;51200;-50
2021/07/09 04:53:36;;;;;;;;;12.00;11.67;;;;;-147.17;100.00;59696.56;4952386;28;52683;-48
2021/07/09 04:56:02;;;;;;;;;14.67;13.67;;;;;-147.17;100.00;59696.56;4967052;28;51152;-48
2021/07/09 04:58:27;;;;;;;;;15.00;15.00;;;;;-147.17;100.00;59696.56;4973892;28;51092;-49
2021/07/09 05:00:53;;;;;;;;;15.50;15.00;;;;;-147.17;100.00;59696.56;4956927;28;50910;-48
2021/07/09 05:03:18;;;;;;;;;15.00;15.00;;;;;-147.17;100.00;59696.56;4970246;28;51062;-50
2021/07/09 05:05:43;;;;;;;;;14.67;14.33;;;;;-147.17;100.00;59696.56;4973383;28;50978;-47
2021/07/09 05:08:09;;;;;;;;;17.25;17.25;;;;;-147.17;100.00;59696.56;4974304;28;51486;-49
2021/07/09 05:10:34;;;;;;;;;14.33;14.00;;;;;-147.17;100.00;59696.56;4971925;28;50935;-48
2021/07/09 05:13:00;;;;;;;;;15.00;14.00;;;;;-147.17;100.00;59696.56;4973176;28;51405;-50
2021/07/09 05:15:25;;;;;;;;;16.33;14.67;;;;;-147.17;100.00;59696.56;4969852;28;50993;-49
2021/07/09 05:17:50;;;;;;;;;17.00;16.33;;;;;-147.17;100.00;59696.56;4985441;28;51461;-49
2021/07/09 05:20:16;;;;;;;;;16.33;14.33;;;;;-147.17;100.00;59696.56;4972923;28;50847;-48
2021/07/09 05:22:42;;;;;;;;;15.33;15.00;;;;;-147.17;100.00;59696.56;4974062;28;51944;-47
2021/07/09 05:25:08;;;;;;;;;15.33;14.33;;;;;-147.17;100.00;59696.56;4973098;28;51195;-49
2021/07/09 05:27:34;;;;;;;;;13.67;13.67;;;;;-147.17;100.00;59696.56;4974158;28;51081;-50
2021/07/09 05:30:00;;;;;;;;;14.33;14.33;;;;;-147.17;100.00;59696.56;4961100;28;51182;-51
2021/07/09 05:32:26;;;;;;;;;15.00;15.00;;;;;-147.17;100.00;59696.56;4970131;28;51731;-51
2021/07/09 05:34:54;;;;;;;;;14.33;13.67;;;;;-147.17;100.00;59696.56;4954202;28;51242;-49
2021/07/09 05:37:20;;;;;;;;;16.75;16.25;;;;;-147.17;100.00;59696.56;4976532;28;50974;-49
2021/07/09 05:39:45;;;;;;;;;14.00;13.67;;;;;-147.17;100.00;59696.56;4972605;28;51169;-50
2021/07/09 05:42:11;;;;;;;;;14.33;13.67;;;;;-147.17;100.00;59696.56;4972429;28;52351;-49
2021/07/09 05:44:38;;;;;;;;;13.67;12.67;;;;;-147.17;100.00;59696.56;4971344;28;51410;-50
2021/07/09 05:47:03;;;;;;;;;16.00;16.00;;;;;-147.17;100.00;59696.56;4973203;28;50994;-51
2021/07/09 05:49:29;;;;;;;;;21.00;20.25;;;;;-147.17;100.00;59696.56;4974356;28;51176;-49
2021/07/09 05:51:54;;;;;;;;;18.00;15.67;;;;;-147.17;100.00;59696.56;4973408;28;50989;-53
2021/07/09 05:54:19;;;;;;;;;14.00;12.50;;;;;-147.17;100.00;59696.56;4961851;28;51173;-50
2021/07/09 05:56:45;;;;;;;;;18.00;16.33;;;;;-147.17;100.00;59696.56;4968786;28;51586;-49
2021/07/09 05:59:10;;;;;;;;;14.00;14.00;;;;;-147.17;100.00;59696.56;4973172;28;51311;-51
2021/07/09 06:01:36;;;;;;;;;16.00;15.67;;;;;-147.17;100.00;59696.56;4971516;28;51979;-48
2021/07/09 06:04:01;;;;;;;;;15.00;14.00;;;;;-147.17;100.00;59696.56;4971971;28;51054;-48
2021/07/09 06:06:27;;;;;;;;;14.67;12.33;;;;;-147.17;100.00;59696.56;4973383;28;51360;-49
2021/07/09 06:08:53;;;;;;;;;12.00;12.00;;;;;-147.17;100.00;59696.56;4972085;28;51350;-49
2021/07/09 06:11:18;;;;;;;;;15.33;14.67;;;;;-147.17;100.00;59696.56;4971349;28;51097;-49
2021/07/09 06:13:44;;;;;;;;;15.67;15.67;;;;;-147.17;100.00;59696.56;4974171;28;51066;-49
2021/07/09 06:16:09;;;;;;;;;14.67;13.67;;;;;-147.17;100.00;59696.56;4956741;28;51138;-46
2021/07/09 06:18:34;;;;;;;;;15.33;13.00;;;;;-147.17;100.00;59696.56;4969075;28;51315;-49
2021/07/09 06:21:00;;;;;;;;;16.00;14.33;;;;;-147.17;100.00;59696.56;4985875;28;52864;-49
2021/07/09 06:23:25;;;;;;;;;14.33;13.00;;;;;-147.17;100.00;59696.56;4973430;28;50836;-50
2021/07/09 06:25:51;;;;;;;;;16.00;15.25;;;;;-147.17;100.00;59696.56;4973077;28;50986;-51
2021/07/09 06:28:17;;;;;;;;;12.67;10.67;;;;;-147.17;100.00;59696.56;4973382;28;51341;-49
2021/07/09 06:30:43;;;;;;;;;14.00;13.00;;;;;-147.17;100.00;59696.56;4972277;28;52004;-48
2021/07/09 06:33:09;;;;;;;;;12.33;12.33;;;;;-147.17;100.00;59696.56;4960980;28;51055;-49
2021/07/09 06:35:36;;;;;;;;;17.33;15.33;;;;;-147.17;100.00;59696.56;4972818;28;51063;-49
2021/07/09 06:38:01;;;;;;;;;16.00;15.00;;;;;-147.17;100.00;59696.56;4971904;28;51023;-51
2021/07/09 06:40:27;;;;;;;;;14.33;13.00;;;;;-147.17;100.00;59696.56;4968741;28;53078;-49
2021/07/09 06:42:53;;;;;;;;;12.33;11.00;;;;;-147.17;100.00;59696.56;4972366;28;50908;-49
2021/07/09 06:45:20;;;;;;;;;15.67;15.00;;;;;-147.17;100.00;59696.56;4971281;28;50962;-49
2021/07/09 06:47:45;;;;;;;;;18.25;18.25;;;;;-147.17;100.00;59696.56;4966842;28;51403;-47
2021/07/09 06:50:13;;;;;;;;;13.00;13.00;;;;;-147.17;100.00;59696.56;4984069;28;51165;-51
2021/07/09 06:52:38;;;;;;;;;14.67;14.67;;;;;-147.17;100.00;59696.56;4973669;28;51262;-51
2021/07/09 06:55:04;;;;;;;;;13.00;12.33;;;;;-147.17;100.00;59696.56;4952094;28;51271;-49
2021/07/09 06:57:29;;;;;;;;;13.00;13.00;;;;;-147.17;100.00;59696.56;4952188;28;51330;-50
2021/07/09 06:59:55;;;;;;;;;14.33;12.67;;;;;-147.17;100.00;59696.56;4970267;28;51826;-51
2021/07/09 07:02:20;;;;;;;;;16.00;15.00;;;;;-147.17;100.00;59696.56;4976399;28;51019;-51
2021/07/09 07:04:46;;;;;;;;;13.67;13.67;;;;;-147.17;100.00;59696.56;4973314;28;51050;-49
2021/07/09 07:07:11;;;;;;;;;14.00;13.00;;;;;-147.17;100.00;59696.56;4971891;28;51150;-51
2021/07/09 07:09:38;;;;;;;;;13.00;13.00;;;;;-147.17;100.00;59696.56;4972058;28;50989;-52
2021/07/09 07:12:05;;;;;;;;;19.67;17.33;;;;;-147.17;100.00;59696.56;4956371;28;51156;-54
2021/07/09 07:14:31;;;;;;;;;18.00;17.75;;;;;-147.17;100.00;59696.56;4956931;28;51113;-52
2021/07/09 07:16:57;;;;;;;;;14.50;13.50;;;;;-147.17;100.00;59696.56;4975307;28;51229;-51
2021/07/09 07:19:22;;;;;;;;;14.25;13.50;;;;;-147.17;100.00;59696.56;4975282;28;51299;-53
2021/07/09 07:21:48;;;;;;;;;15.33;15.33;;;;;-147.17;100.00;59696.56;4973764;28;51070;-52
2021/07/09 07:24:13;;;;;;;;;17.00;16.00;;;;;-147.17;100.00;59696.56;4975029;28;51090;-50
2021/07/09 07:26:38;;;;;;;;;14.00;12.33;;;;;-147.17;100.00;59696.56;4975951;28;51299;-54
2021/07/09 07:29:04;;;;;;;;;15.00;15.00;;;;;-147.17;100.00;59696.56;4975041;28;51865;-54
2021/07/09 07:31:29;;;;;;;;;13.67;13.00;;;;;-147.17;100.00;59696.56;4975586;28;51020;-51
2021/07/09 07:33:55;;;;;;;;;13.67;13.33;;;;;-147.17;100.00;59696.56;4975448;28;51088;-54
2021/07/09 07:36:20;;;;;;;;;14.33;13.00;;;;;-147.17;100.00;59696.56;4975253;28;51195;-54
2021/07/09 07:38:47;;;;;;;;;16.67;15.33;;;;;-147.17;100.00;59696.56;4988745;28;51773;-53
2021/07/09 07:41:14;;;;;;;;;14.33;14.33;;;;;-147.17;100.00;59696.56;4974574;28;51157;-53
2021/07/09 07:43:42;;;;;;;;;14.00;14.00;;;;;-147.17;100.00;59696.56;4973911;28;51007;-53
2021/07/09 07:46:08;;;;;;;;;16.67;15.67;;;;;-147.17;100.00;59696.56;4974588;28;51144;-53
2021/07/09 07:48:34;;;;;;;;;15.00;12.67;;;;;-147.17;100.00;59696.56;4974219;28;51711;-54
2021/07/09 07:50:59;;;;;;;;;15.00;12.00;;;;;-147.17;100.00;59696.56;4974531;28;51059;-51
2021/07/09 07:53:25;;;;;;;;;12.00;11.25;;;;;-147.17;100.00;59696.56;4975287;28;51046;-51
2021/07/09 07:55:50;;;;;;;;;12.00;11.67;;;;;-147.17;100.00;59696.56;4975549;28;50908;-53
2021/07/09 07:58:15;;;;;;;;;14.00;12.67;;;;;-147.17;100.00;59696.56;4974763;28;51078;-54
2021/07/09 08:00:41;;;;;;;;;14.00;13.33;;;;;-147.17;100.00;59696.56;4974182;28;50978;-53
2021/07/09 08:03:06;;;;;;;;;14.00;13.00;;;;;-147.17;100.00;59696.56;4975127;28;50947;-53
2021/07/09 08:05:31;;;;;;;;;11.33;10.00;;;;;-147.17;100.00;59696.56;4975388;28;51067;-50
2021/07/09 08:07:57;;;;;;;;;10.33;10.00;;;;;-147.17;100.00;59696.56;4974853;28;51092;-50
2021/07/09 08:10:23;;;;;;;;;11.33;11.33;;;;;-147.17;100.00;59696.56;4974950;28;51089;-50
2021/07/09 08:12:49;;;;;;;;;10.33;10.00;;;;;-147.17;100.00;59696.56;4957814;28;51181;-51
2021/07/09 08:15:15;;;;;;;;;13.33;12.67;;;;;-147.17;100.00;59696.56;4975037;28;51243;-50
2021/07/09 08:17:40;;;;;;;;;11.67;11.00;;;;;-147.17;100.00;59696.56;4975128;28;50955;-51
2021/07/09 08:20:07;;;;;;;;;14.33;14.00;;;;;-147.17;100.00;59696.56;4975059;28;50984;-50
2021/07/09 08:22:32;;;;;;;;;16.33;11.67;;;;;-147.17;100.00;59696.56;4975065;28;50971;-51
2021/07/09 08:24:58;;;;;;;;;11.00;10.33;;;;;-147.17;100.00;59696.56;4974370;28;51256;-53
2021/07/09 08:27:23;;;;;;;;;16.00;15.50;;;;;-147.17;100.00;59696.56;4974735;28;52183;-51
2021/07/09 08:29:48;;;;;;;;;15.67;15.67;;;;;-147.17;100.00;59696.56;4973980;28;51049;-53
2021/07/09 08:32:14;;;;;;;;;12.33;12.00;;;;;-147.17;100.00;59696.56;4974860;28;51044;-52
2021/07/09 08:34:39;;;;;;;;;14.33;13.67;;;;;-147.17;100.00;59696.56;4975026;28;51379;-53
2021/07/09 08:37:05;;;;;;;;;11.33;10.00;;;;;-147.17;100.00;59696.56;4977729;28;52807;-52
2021/07/09 08:39:30;;;;;;;;;14.00;11.67;;;;;-147.17;100.00;59696.56;4975362;28;50973;-52
2021/07/09 08:41:56;;;;;;;;;11.00;10.00;;;;;-147.17;100.00;59696.56;4974437;28;51062;-50
2021/07/09 08:44:22;;;;;;;;;10.33;10.00;;;;;-147.17;100.00;59696.56;4974493;28;51017;-52
2021/07/09 08:46:48;;;;;;;;;8.67;8.33;;;;;-147.17;100.00;59696.56;4956834;28;51727;-53
2021/07/09 08:49:16;;;;;;;;;11.00;10.00;;;;;-147.17;100.00;59696.56;4974165;28;50944;-50
2021/07/09 08:51:43;;;;;;;;;11.67;10.33;;;;;-147.17;100.00;59696.56;4974161;28;51126;-51
2021/07/09 08:54:13;;;;;;;;;9.67;9.00;;;;;-147.17;100.00;59696.56;4974039;28;51115;-54
2021/07/09 08:56:39;;;;;;;;;9.00;8.67;;;;;-147.17;100.00;59696.56;4956038;28;52368;-54
2021/07/09 08:59:04;;;;;;;;;11.00;11.00;;;;;-147.17;100.00;59696.56;4973814;28;51077;-51
2021/07/09 09:01:30;;;;;;;;;10.67;10.00;;;;;-147.17;100.00;59696.56;4974132;28;51250;-53
2021/07/09 09:04:05;;;;;;;;;9.00;9.00;;;;;-147.17;100.00;59696.56;4974288;28;52015;-54
2021/07/09 09:06:31;;;;;;;;;8.00;8.00;;;;;-147.17;100.00;59696.56;4973425;28;51968;-53
2021/07/09 09:08:56;;;;;;;;;10.00;8.67;;;;;-147.17;100.00;59696.56;4973837;28;51053;-52
2021/07/09 09:11:22;;;;;;;;;11.00;10.00;;;;;-147.17;100.00;59696.56;4973986;28;51145;-52
2021/07/09 09:13:47;;;;;;;;;8.33;8.00;;;;;-147.17;100.00;59696.56;4973997;28;50939;-54
2021/07/09 09:16:15;;;;;;;;;10.33;9.00;;;;;-147.17;100.00;59696.56;4973850;28;51718;-51
2021/07/09 09:18:43;;;;;;;;;8.67;8.67;;;;;-147.17;100.00;59696.56;4956512;28;51119;-52
2021/07/09 09:21:17;;;;;;;;;11.67;11.33;;;;;-147.17;100.00;59696.56;4974156;28;50864;-54
2021/07/09 09:23:52;;;;;;;;;7.33;7.33;;;;;-147.17;100.00;59696.56;4974979;28;51134;-50
2021/07/09 09:26:40;;;;;;;;;8.33;8.33;;;;;-147.17;100.00;59696.56;4956576;28;52787;-55
2021/07/09 09:29:09;;;;;;;;;7.67;7.67;;;;;-147.17;100.00;59696.56;4973738;28;51002;-52
2021/07/09 09:31:36;;;;;;;;;9.33;9.33;;;;;-147.17;100.00;59696.56;4956293;28;51181;-54
2021/07/09 09:34:04;;;;;;;;;10.33;9.33;;;;;-147.17;100.00;59696.56;4973630;28;51198;-51
2021/07/09 09:36:29;;;;;;;;;9.33;9.33;;;;;-147.17;100.00;59696.56;4972227;28;51346;-53
2021/07/09 09:38:56;;;;;;;;;11.33;10.67;;;;;-147.17;100.00;59696.56;4978950;28;51124;-53
2021/07/09 09:41:21;;;;;;;;;10.00;9.00;;;;;-147.17;100.00;59696.56;4973246;28;50943;-53
2021/07/09 09:43:47;;;;;;;;;10.00;9.33;;;;;-147.17;100.00;59696.56;4973398;28;50880;-54
2021/07/09 09:46:15;;;;;;;;;12.00;11.00;;;;;-147.17;100.00;59696.56;4972937;28;52077;-51
2021/07/09 09:48:47;;;;;;;;;9.67;9.67;;;;;-147.17;100.00;59696.56;4973557;28;51126;-53
2021/07/09 09:51:36;;;;;;;;;9.00;9.00;;;;;-147.17;100.00;59696.56;4973356;28;51126;-54
2021/07/09 09:54:09;;;;;;;;;8.67;8.67;;;;;-147.17;100.00;59696.56;4973146;28;50957;-53
2021/07/09 09:56:40;;;;;;;;;11.33;11.33;;;;;-147.17;100.00;59696.56;4972874;28;52392;-54
2021/07/09 09:59:18;;;;;;;;;12.00;11.00;;;;;-147.17;100.00;59696.56;4972517;28;51023;-54
2021/07/09 10:02:03;;;;;;;;;10.33;10.33;;;;;-147.17;100.00;59696.56;4972885;28;50988;-53
2021/07/09 10:04:31;;;;;;;;;33.00;30.75;;;;;-147.17;100.00;59696.56;4972891;28;51269;-54
2021/07/09 10:06:57;;;;;;;;;10.00;10.00;;;;;-147.17;100.00;59696.56;4952100;28;51058;-54
2021/07/09 10:09:24;;;;;;;;;8.33;8.00;;;;;-147.17;100.00;59696.56;4964009;28;51002;-53
2021/07/09 10:11:50;;;;;;;;;7.00;7.00;;;;;-147.17;100.00;59696.56;4972762;28;51020;-52
2021/07/09 10:14:21;;;;;;;;;9.33;9.33;;;;;-147.17;100.00;59696.56;4972864;28;50925;-54
2021/07/09 10:16:49;;;;;;;;;10.00;10.00;;;;;-147.17;100.00;59696.56;4972440;28;52935;-52
2021/07/09 10:19:28;;;;;;;;;9.00;9.00;;;;;-147.17;100.00;59696.56;4972467;28;50978;-54
2021/07/09 10:21:53;;;;;;;;;10.00;10.00;;;;;-147.17;100.00;59696.56;4972674;28;51114;-52
2021/07/09 10:24:19;;;;;;;;;13.33;11.00;;;;;-147.17;100.00;59696.56;4954603;28;51336;-53
2021/07/09 10:26:49;;;;;;;;;8.00;8.00;;;;;-147.17;100.00;59696.56;4972657;28;51333;-52
2021/07/09 10:29:17;;;;;;;;;8.33;8.00;;;;;-147.17;100.00;59696.56;4971977;28;50938;-53
2021/07/09 10:31:45;;;;;;;;;9.33;9.00;;;;;-147.17;100.00;59696.56;4972700;28;51153;-51
2021/07/09 10:34:23;;;;;;;;;10.00;10.00;;;;;-147.17;100.00;59696.56;4972343;28;50967;-53
2021/07/09 10:37:00;;;;;;;;;6.67;6.67;;;;;-147.17;100.00;59696.56;4973490;28;51134;-54
2021/07/09 10:39:39;;;;;;;;;10.00;8.67;;;;;-147.17;100.00;59696.56;4973829;28;51131;-53
2021/07/09 10:42:39;;;;;;;;;8.00;8.00;;;;;-147.17;100.00;59696.56;4972429;28;51077;-54
2021/07/09 10:45:25;;;;;;;;;7.67;7.67;;;;;-147.17;100.00;59696.56;4972324;28;50963;-52
2021/07/09 10:47:51;;;;;;;;;6.00;6.00;;;;;-147.17;100.00;59696.56;4957660;28;50958;-55
2021/07/09 10:50:20;;;;;;;;;8.33;7.67;;;;;-147.17;100.00;59696.56;4975835;28;51040;-51
2021/07/09 10:52:49;;;;;;;;;8.00;8.00;;;;;-147.17;100.00;59696.56;4958373;28;50971;-51
2021/07/09 10:55:27;;;;;;;;;8.00;8.00;;;;;-147.17;100.00;59696.56;4975766;28;50971;-55
2021/07/09 10:58:07;;;;;;;;;9.00;8.67;;;;;-147.17;100.00;59696.56;4975485;28;50967;-55